createdAt,value
2018-11-01T00:04:30.995Z,7.60
2018-11-01T00:14:34.275Z,7.50
2018-11-01T00:24:37.582Z,7.50
2018-11-01T00:34:40.851Z,7.50
2018-11-01T00:44:44.137Z,7.40
2018-11-01T00:54:47.421Z,7.40
2018-11-01T01:04:50.689Z,7.30
2018-11-01T01:14:53.958Z,7.30
2018-11-01T01:24:57.224Z,7.20
2018-11-01T01:35:00.497Z,7.20
2018-11-01T01:45:04.549Z,7.10
2018-11-01T01:55:08.217Z,7.20
2018-11-01T02:05:11.851Z,7.10
2018-11-01T02:15:16.730Z,6.90
2018-11-01T02:25:20.043Z,6.80
2018-11-01T02:35:23.308Z,6.80
2018-11-01T02:45:26.582Z,6.70
2018-11-01T02:55:29.906Z,6.50
2018-11-01T03:05:33.188Z,6.50
2018-11-01T03:15:36.494Z,6.50
2018-11-01T03:25:39.766Z,6.40
2018-11-01T03:35:43.093Z,6.30
2018-11-01T03:45:46.468Z,6.30
2018-11-01T03:55:49.730Z,6.30
2018-11-01T04:05:53.009Z,6.20
2018-11-01T04:15:56.270Z,6.10
2018-11-01T04:25:59.581Z,6.10
2018-11-01T04:36:02.976Z,6.00
2018-11-01T04:46:06.285Z,6.00
2018-11-01T04:56:09.512Z,5.90
2018-11-01T05:06:12.731Z,5.80
2018-11-01T05:16:16.061Z,5.70
2018-11-01T05:26:19.286Z,5.70
2018-11-01T05:36:22.517Z,5.80
2018-11-01T05:46:25.739Z,5.80
2018-11-01T05:56:29.282Z,5.70
2018-11-01T06:06:32.657Z,5.80
2018-11-01T06:16:35.898Z,5.70
2018-11-01T06:26:39.120Z,5.60
2018-11-01T06:36:42.364Z,5.50
2018-11-01T06:46:45.630Z,5.60
2018-11-01T06:56:48.925Z,5.80
2018-11-01T07:06:52.150Z,5.70
2018-11-01T07:16:55.395Z,6.10
2018-11-01T07:26:58.614Z,6.10
2018-11-01T07:37:02.345Z,6.00
2018-11-01T07:47:06.300Z,6.40
2018-11-01T07:57:09.550Z,6.50
2018-11-01T08:07:12.806Z,6.70
2018-11-01T08:17:16.055Z,6.80
2018-11-01T08:27:19.286Z,6.90
2018-11-01T08:37:22.578Z,6.80
2018-11-01T08:47:25.801Z,7.20
2018-11-01T08:57:29.082Z,7.30
2018-11-01T09:07:32.424Z,7.40
2018-11-01T09:17:35.661Z,7.70
2018-11-01T09:27:38.946Z,7.80
2018-11-01T09:37:42.884Z,8.00
2018-11-01T09:47:46.300Z,8.10
2018-11-01T09:57:49.402Z,8.30
2018-11-01T10:07:52.697Z,8.30
2018-11-01T10:17:56.360Z,8.60
2018-11-01T10:27:59.294Z,8.70
2018-11-01T10:38:02.535Z,8.70
2018-11-01T10:48:05.806Z,9.10
2018-11-01T10:58:09.035Z,9.30
2018-11-01T11:08:12.307Z,9.60
2018-11-01T11:18:15.561Z,9.90
2018-11-01T11:28:18.798Z,10.00
2018-11-01T11:38:22.039Z,10.10
2018-11-01T11:48:25.329Z,10.80
2018-11-01T11:58:28.566Z,11.60
2018-11-01T12:08:31.802Z,11.70
2018-11-01T12:18:35.099Z,11.80
2018-11-01T12:28:38.379Z,11.80
2018-11-01T12:38:41.592Z,11.90
2018-11-01T12:48:44.866Z,12.10
2018-11-01T12:58:48.105Z,12.20
2018-11-01T13:08:51.335Z,12.20
2018-11-01T13:18:54.546Z,12.40
2018-11-01T13:28:58.157Z,13.00
2018-11-01T13:49:04.585Z,12.90
2018-11-01T13:59:07.810Z,12.70
2018-11-01T14:09:11.072Z,12.70
2018-11-01T14:19:14.305Z,12.80
2018-11-01T14:29:17.534Z,12.90
2018-11-01T14:39:20.751Z,13.00
2018-11-01T14:49:24.027Z,13.00
2018-11-01T14:59:28.571Z,13.20
2018-11-01T15:09:30.450Z,12.90
2018-11-01T15:19:33.689Z,12.50
2018-11-01T15:29:36.963Z,12.50
2018-11-01T15:39:40.241Z,12.20
2018-11-01T15:49:43.438Z,12.10
2018-11-01T15:59:46.872Z,12.10
2018-11-01T16:09:50.161Z,12.00
2018-11-01T16:19:53.499Z,11.90
2018-11-01T16:29:56.582Z,11.60
2018-11-01T16:39:59.874Z,11.40
2018-11-01T16:50:03.131Z,11.20
2018-11-01T17:00:08.743Z,11.10
2018-11-01T17:10:13.198Z,10.80
2018-11-01T17:20:16.436Z,10.50
2018-11-01T17:30:19.667Z,10.20
2018-11-01T17:40:23.009Z,10.20
2018-11-01T17:50:26.338Z,10.10
2018-11-01T18:00:29.894Z,10.10
2018-11-01T18:10:34.246Z,9.80
2018-11-01T18:20:37.517Z,9.80
2018-11-01T18:30:40.778Z,9.80
2018-11-01T18:40:44.026Z,9.80
2018-11-01T18:50:47.274Z,9.60
2018-11-01T19:00:51.684Z,9.60
2018-11-01T19:10:55.036Z,9.60
2018-11-01T19:20:58.282Z,9.50
2018-11-01T19:31:01.561Z,9.40
2018-11-01T19:41:04.886Z,9.30
2018-11-01T19:51:08.276Z,9.30
2018-11-01T20:01:11.719Z,9.30
2018-11-01T20:11:14.969Z,9.30
2018-11-01T20:21:25.002Z,9.40
2018-11-01T20:31:28.385Z,9.50
2018-11-01T20:41:31.457Z,9.50
2018-11-01T20:51:34.910Z,9.50
2018-11-01T21:01:38.153Z,9.50
2018-11-01T21:11:41.625Z,9.60
2018-11-01T21:21:44.693Z,10.10
2018-11-01T21:31:47.943Z,10.20
2018-11-01T21:41:51.239Z,10.20
2018-11-01T21:51:54.462Z,10.10
2018-11-01T22:01:59.348Z,9.80
2018-11-01T22:12:02.630Z,9.80
2018-11-01T22:22:05.854Z,9.70
2018-11-01T22:32:09.111Z,9.60
2018-11-01T22:42:12.365Z,9.60
2018-11-01T22:52:15.913Z,9.40
2018-11-01T23:02:19.237Z,9.10
2018-11-01T23:12:22.474Z,8.90
2018-11-01T23:22:25.699Z,8.90
2018-11-01T23:32:28.982Z,8.70
2018-11-01T23:42:37.514Z,8.50
2018-11-01T23:52:40.840Z,8.40
